Burgtor — V2OR7 — position and weather

sailwx.info

Track history (hours):
 
Tides and Currents Weather Stations Pressure Air Temp Water Temp Dewpoint Dewpoint Depression Visibility Wind Speed Wind Dir Waves Ship Positions

Burgtor

Last reported at 2017-Jul-28 12:30 UTC. Time now 2017-Jul-28 12:48 UTC.
Position N 53°58' E 008°35'.

Length 87 m; draft 5.2 m.

Type: Cargo ship. MMSI: 304665000.

Date/timePositionNaut miles runAvg speedWind from/ knotsBaromVisibWave heightAir tempDewpointWater temp
2017-Jul-28 12:30N 53°58' E 008°35'3 6.7
2017-Jul-28 12:00N 53°58' E 008°30'3 6.8
2017-Jul-28 11:30N 53°59' E 008°24'3 6.4
2017-Jul-28 11:00N 53°59' E 008°19'3 5.9
2017-Jul-28 10:30N 53°59' E 008°14'3 5.7
2017-Jul-28 10:00N 53°59' E 008°09'3 5.1
2017-Jul-28 09:30N 53°58' E 008°05'3 5.1
2017-Jul-28 08:56N 53°57' E 007°60'2 4.6
2017-Jul-28 08:28N 53°57' E 007°56'90 6.5
2017-Jul-27 18:42N 53°34' E 005°29'2 7.0
2017-Jul-27 18:27N 53°33' E 005°27'3 6.8
2017-Jul-27 18:00N 53°32' E 005°22'3 6.8
2017-Jul-27 17:30N 53°31' E 005°16'3 6.5
2017-Jul-27 17:00N 53°30' E 005°11'3 6.4
2017-Jul-27 16:30N 53°29' E 005°06'3 6.4
2017-Jul-27 16:00N 53°28' E 005°01'3 6.4
2017-Jul-27 15:31N 53°27' E 004°56'3 6.6
2017-Jul-27 15:00N 53°25' E 004°51'17 6.0
2017-Jul-27 12:12N 53°12' E 004°35'2 6.3
2017-Jul-27 11:56N 53°10' E 004°33'3 6.4
2017-Jul-27 11:29N 53°08' E 004°31'3 6.2
2017-Jul-27 11:00N 53°05' E 004°28'4 8.5
2017-Jul-27 10:30N 53°02' E 004°24'4 8.6
2017-Jul-27 10:00N 52°58' E 004°21'4 8.9
2017-Jul-27 09:30N 52°54' E 004°17'4 8.9
2017-Jul-27 09:00N 52°51' E 004°13'5 9.3
2017-Jul-27 08:31N 52°47' E 004°09'5 9.3
2017-Jul-27 08:00N 52°43' E 004°04'5 9.6
2017-Jul-27 07:30N 52°40' E 003°58'5 9.7
2017-Jul-27 07:00N 52°36' E 003°53'5 9.8
2017-Jul-27 06:28N 52°32' E 003°47'72 8.9
2017-Jul-26 22:21N 51°39' E 002°29'2 7.1
2017-Jul-26 22:00N 51°37' E 002°26'4 7.3
2017-Jul-26 21:30N 51°34' E 002°22'4 7.3
2017-Jul-26 21:00N 51°31' E 002°19'4 7.7
2017-Jul-26 20:31N 51°28' E 002°15'4 8.0
2017-Jul-26 20:00N 51°25' E 002°12'4 7.3
2017-Jul-26 19:30N 51°21' E 002°10'4 7.1
2017-Jul-26 19:00N 51°18' E 002°07'4 8.2
2017-Jul-26 18:31N 51°15' E 002°04'4 7.5
2017-Jul-26 18:01N 51°12' E 001°60'4 7.6
2017-Jul-26 17:31N 51°11' E 001°54'4 7.0
2017-Jul-26 17:00N 51°09' E 001°49'4 7.3
2017-Jul-26 16:30N 51°07' E 001°45'4 7.5
2017-Jul-26 16:00N 51°04' E 001°40'4 7.5
2017-Jul-26 15:30N 51°01' E 001°36'4 7.5
2017-Jul-26 15:00N 50°59' E 001°32'8 7.2
2017-Jul-26 13:56N 50°53' E 001°24'46 9.6
2017-Jul-26 09:05N 50°26' E 000°25'110.4
2017-Jul-26 08:59N 50°25' E 000°23'510.2
2017-Jul-26 08:30N 50°24' E 000°16'5 9.6
2017-Jul-26 08:00N 50°22' E 000°09'4 8.9
2017-Jul-26 07:30N 50°21' E 000°02'4 8.2
2017-Jul-26 06:59N 50°22' W 000°04'4 8.5
2017-Jul-26 06:30N 50°24' W 000°10'4 8.2
2017-Jul-26 06:01N 50°26' W 000°15'4 7.6
2017-Jul-26 05:30N 50°28' W 000°21'5 7.4
2017-Jul-26 04:52N 50°31' W 000°27'3 7.3
2017-Jul-26 04:30N 50°32' W 000°31'4 7.6
2017-Jul-26 04:01N 50°34' W 000°36'4 7.1
2017-Jul-26 03:30N 50°35' W 000°41'3 6.8
2017-Jul-26 03:00N 50°37' W 000°45'3 6.2
2017-Jul-26 02:30N 50°38' W 000°50'3 6.6
2017-Jul-26 02:00N 50°41' W 000°54'4 7.2
2017-Jul-26 01:31N 50°43' W 000°58'4 8.2
2017-Jul-26 01:00N 50°44' W 001°04'4 8.2
2017-Jul-26 00:30N 50°46' W 001°10'4 8.3
2017-Jul-26 00:01N 50°48' W 001°16'4 8.1
2017-Jul-25 23:30N 50°51' W 001°20'4 7.6
2017-Jul-25 23:00N 50°54' W 001°25'2 0.5
2017-Jul-25 19:52N 50°55' W 001°27'0 0.0
2017-Jul-25 18:01N 50°55' W 001°27'0 0.1
2017-Jul-25 17:58N 50°55' W 001°27'0 0.0
2017-Jul-24 01:03N 50°55' W 001°27'0 0.0
2017-Jul-24 01:00N 50°55' W 001°27'1 1.4
2017-Jul-24 00:30N 50°54' W 001°26'3 6.6
2017-Jul-24 00:00N 50°52' W 001°22'4 9.0
2017-Jul-23 23:30N 50°48' W 001°17'4 8.0
2017-Jul-23 23:00N 50°45' W 001°22'4 7.8
2017-Jul-23 22:30N 50°44' W 001°27'4 7.8
2017-Jul-23 22:00N 50°42' W 001°33'4 8.3
2017-Jul-23 21:30N 50°39' W 001°37'4 8.0
2017-Jul-23 21:00N 50°36' W 001°42'4 8.0
2017-Jul-23 20:30N 50°34' W 001°47'4 8.6
2017-Jul-23 20:00N 50°32' W 001°53'19 8.4
2017-Jul-23 17:43N 50°25' W 002°21'2 8.8
2017-Jul-23 17:30N 50°25' W 002°24'4 8.4
2017-Jul-23 17:00N 50°24' W 002°30'4 8.1
2017-Jul-23 16:30N 50°23' W 002°37'4 8.2
2017-Jul-23 16:00N 50°21' W 002°43'4 8.1
2017-Jul-23 15:30N 50°20' W 002°49'4 8.1
2017-Jul-23 15:00N 50°19' W 002°55'4 8.1
2017-Jul-23 14:30N 50°17' W 003°01'4 8.1
2017-Jul-23 14:00N 50°16' W 003°07'4 8.9
2017-Jul-23 13:30N 50°15' W 003°13'5 9.2
2017-Jul-23 13:00N 50°13' W 003°20'5 9.2
2017-Jul-23 12:30N 50°12' W 003°27'4 8.8
2017-Jul-23 12:00N 50°10' W 003°33'4 7.5
2017-Jul-23 11:30N 50°09' W 003°39'4 7.0
2017-Jul-23 11:00N 50°09' W 003°44'4 7.5
2017-Jul-23 10:30N 50°11' W 003°49'4 7.7
2017-Jul-23 10:00N 50°13' W 003°55'5 9.4
2017-Jul-23 09:30N 50°15' W 004°01'5 9.7
2017-Jul-23 09:00N 50°17' W 004°08'4 7.1
2017-Jul-23 08:30N 50°20' W 004°11'0 0.0
2017-Jul-23 07:58N 50°20' W 004°11'0 0.1
2017-Jul-23 07:28N 50°20' W 004°11'0 0.0
2017-Jul-23 06:58N 50°20' W 004°11'0 0.0
2017-Jul-23 06:28N 50°20' W 004°11'0 0.0
2017-Jul-23 05:58N 50°20' W 004°11'0 0.1
2017-Jul-23 05:28N 50°20' W 004°11'0 0.0
2017-Jul-23 04:58N 50°20' W 004°11'0 0.0
2017-Jul-23 04:28N 50°20' W 004°11'0 0.0
2017-Jul-23 03:58N 50°20' W 004°11'0 0.0
2017-Jul-23 03:28N 50°20' W 004°11'0 0.0
2017-Jul-23 02:58N 50°20' W 004°11'0 0.1
2017-Jul-23 02:28N 50°20' W 004°11'0 0.0
2017-Jul-23 01:58N 50°20' W 004°11'0 0.0
2017-Jul-23 01:28N 50°20' W 004°11'0 0.0
2017-Jul-23 00:58N 50°20' W 004°11'0 0.1
2017-Jul-23 00:28N 50°20' W 004°11'0 0.0
2017-Jul-22 23:58N 50°20' W 004°11'0 0.0
2017-Jul-22 23:28N 50°20' W 004°11'0 0.0
2017-Jul-22 22:58N 50°20' W 004°11'0 0.1
2017-Jul-22 22:28N 50°20' W 004°11'0 0.0
2017-Jul-22 21:58N 50°20' W 004°11'0 0.0
2017-Jul-22 21:28N 50°20' W 004°11'0 0.0
2017-Jul-22 20:58N 50°20' W 004°11'0 0.0
2017-Jul-22 20:28N 50°20' W 004°11'0 0.0
2017-Jul-22 19:58N 50°20' W 004°11'0 0.0
2017-Jul-22 19:28N 50°20' W 004°11'0 0.0
2017-Jul-22 19:01N 50°20' W 004°11'0 0.1
2017-Jul-22 18:31N 50°20' W 004°11'0 0.0
2017-Jul-22 18:01N 50°20' W 004°11'0 0.0
2017-Jul-22 17:30N 50°20' W 004°11'0 0.0
2017-Jul-22 17:00N 50°20' W 004°11'0 0.0
2017-Jul-22 16:30N 50°20' W 004°11'0 0.0
2017-Jul-22 16:00N 50°20' W 004°11'0 0.0
2017-Jul-22 15:30N 50°20' W 004°11'0 0.0
2017-Jul-22 15:00N 50°20' W 004°11'0 0.0
2017-Jul-22 14:00N 50°20' W 004°11'0 0.0
2017-Jul-22 13:30N 50°20' W 004°11'0 0.0
2017-Jul-22 13:00N 50°20' W 004°11'0 0.0
2017-Jul-22 12:30N 50°20' W 004°11'0 0.0
2017-Jul-22 12:00N 50°20' W 004°11'0 0.0
2017-Jul-22 11:30N 50°20' W 004°11'0 0.0
2017-Jul-22 11:00N 50°20' W 004°11'0 0.0
2017-Jul-22 10:30N 50°20' W 004°11'0 0.0
2017-Jul-22 10:00N 50°20' W 004°11'0 0.0
2017-Jul-22 09:30N 50°20' W 004°11'0 0.0
2017-Jul-22 09:00N 50°20' W 004°11'0 0.0
2017-Jul-22 08:30N 50°20' W 004°11'0 0.0
2017-Jul-22 07:57N 50°20' W 004°11'0 0.0
2017-Jul-22 07:30N 50°20' W 004°11'0 0.1
2017-Jul-22 07:00N 50°20' W 004°11'0 0.0
2017-Jul-22 06:30N 50°20' W 004°11'0 0.0
2017-Jul-22 06:00N 50°20' W 004°11'0 0.0
2017-Jul-22 05:30N 50°20' W 004°11'0 0.1
2017-Jul-22 05:00N 50°20' W 004°11'0 0.0
2017-Jul-22 04:30N 50°20' W 004°11'0 0.0
2017-Jul-22 04:00N 50°20' W 004°11'0 0.0
2017-Jul-22 03:30N 50°20' W 004°11'0 0.0
2017-Jul-22 03:00N 50°20' W 004°11'0 0.0
2017-Jul-22 02:30N 50°20' W 004°11'0 0.0
2017-Jul-22 02:00N 50°20' W 004°11'0 0.0
2017-Jul-22 01:30N 50°20' W 004°11'0 0.0
2017-Jul-22 01:00N 50°20' W 004°11'0 0.0
2017-Jul-22 00:30N 50°20' W 004°11'0 0.0
2017-Jul-22 00:00N 50°20' W 004°11'0 0.0
2017-Jul-21 23:30N 50°20' W 004°11'0 0.0
2017-Jul-21 23:00N 50°20' W 004°11'0 0.0
2017-Jul-21 22:30N 50°20' W 004°11'0 0.0
2017-Jul-21 22:00N 50°20' W 004°11'0 0.0
2017-Jul-21 21:30N 50°20' W 004°11'0 0.0
2017-Jul-21 21:00N 50°20' W 004°11'0 0.0
2017-Jul-21 20:30N 50°20' W 004°11'0 0.0
2017-Jul-21 20:00N 50°20' W 004°11'0 0.0
2017-Jul-21 19:27N 50°20' W 004°11'0 0.0
2017-Jul-21 19:00N 50°20' W 004°11'0 0.0
2017-Jul-21 18:30N 50°20' W 004°11'0 0.1
2017-Jul-21 18:00N 50°20' W 004°11'0 0.0
2017-Jul-21 17:30N 50°20' W 004°11'0 0.0
2017-Jul-21 17:00N 50°20' W 004°11'0 0.1
2017-Jul-21 16:30N 50°20' W 004°11'0 0.0
2017-Jul-21 16:00N 50°20' W 004°11'0 0.0
2017-Jul-21 15:30N 50°20' W 004°11'0 0.0
2017-Jul-21 15:00N 50°20' W 004°11'0 0.0
2017-Jul-21 14:30N 50°20' W 004°11'0 0.0
2017-Jul-21 14:00N 50°20' W 004°11'0 0.0
2017-Jul-21 13:30N 50°20' W 004°11'0 0.0
2017-Jul-21 13:00N 50°20' W 004°11'0 0.0
2017-Jul-21 12:30N 50°20' W 004°11'0 0.0
2017-Jul-21 12:00N 50°20' W 004°11'0 0.0
2017-Jul-21 11:30N 50°20' W 004°11'0 0.0
2017-Jul-21 11:00N 50°20' W 004°11'0 0.0
2017-Jul-21 10:30N 50°20' W 004°11'0 0.0
2017-Jul-21 10:00N 50°20' W 004°11'0 0.0
2017-Jul-21 09:30N 50°20' W 004°11'0 0.0
2017-Jul-21 09:00N 50°20' W 004°11'0 0.0
2017-Jul-21 08:30N 50°20' W 004°11'0 0.1
2017-Jul-21 08:00N 50°20' W 004°11'0 0.1
2017-Jul-21 07:29N 50°20' W 004°11'0 0.0
2017-Jul-21 06:59N 50°20' W 004°11'0 0.1
2017-Jul-21 06:29N 50°20' W 004°11'0 0.0
2017-Jul-21 05:59N 50°20' W 004°11'0 0.0
2017-Jul-21 05:29N 50°20' W 004°11'0 0.0
2017-Jul-21 04:59N 50°20' W 004°11'0 0.0
2017-Jul-21 04:29N 50°20' W 004°11'0 0.0
2017-Jul-21 03:59N 50°20' W 004°11'0 0.0
2017-Jul-21 03:29N 50°20' W 004°11'0 0.0
2017-Jul-21 02:59N 50°20' W 004°11'0 0.1
2017-Jul-21 02:29N 50°20' W 004°11'0 0.0
2017-Jul-21 01:59N 50°20' W 004°11'0 0.0
2017-Jul-21 01:29N 50°20' W 004°11'0 0.0
2017-Jul-21 00:59N 50°20' W 004°11'0 0.0
2017-Jul-21 00:29N 50°20' W 004°11'0 0.1
2017-Jul-20 23:59N 50°20' W 004°11'0 0.1
2017-Jul-20 23:29N 50°20' W 004°11'0 0.0
2017-Jul-20 22:59N 50°20' W 004°11'0 0.0
2017-Jul-20 22:29N 50°20' W 004°11'0 0.0
2017-Jul-20 21:59N 50°20' W 004°11'0 0.1
2017-Jul-20 21:29N 50°20' W 004°11'0 0.0
2017-Jul-20 20:59N 50°20' W 004°11'0 0.0
2017-Jul-20 20:29N 50°20' W 004°11'0 0.0
2017-Jul-20 19:59N 50°20' W 004°11'0 0.0
2017-Jul-20 19:29N 50°20' W 004°11'0 0.0
2017-Jul-20 18:59N 50°20' W 004°11'0 0.1
2017-Jul-20 18:29N 50°20' W 004°11'0 0.0
2017-Jul-20 17:56N 50°20' W 004°11'0 0.0
2017-Jul-20 17:29N 50°20' W 004°11'0 0.0
2017-Jul-20 16:59N 50°20' W 004°11'0 0.0
2017-Jul-20 16:29N 50°20' W 004°11'0 0.0
2017-Jul-20 15:59N 50°20' W 004°11'0 0.1
2017-Jul-20 15:29N 50°20' W 004°11'0 0.0
2017-Jul-20 14:59N 50°20' W 004°11'0 0.1
2017-Jul-20 13:59N 50°20' W 004°11'0 0.0
2017-Jul-20 13:29N 50°20' W 004°11'0 0.1
2017-Jul-20 12:59N 50°20' W 004°11'0 0.0
2017-Jul-20 12:29N 50°20' W 004°11'0 0.0
2017-Jul-20 11:59N 50°20' W 004°11'0 0.0
2017-Jul-20 11:30N 50°20' W 004°11'0 0.0
2017-Jul-20 11:00N 50°20' W 004°11'0 0.0
2017-Jul-20 10:30N 50°20' W 004°11'0 0.0
2017-Jul-20 10:00N 50°20' W 004°11'0 0.1
2017-Jul-20 09:30N 50°20' W 004°11'0 0.1
2017-Jul-20 09:00N 50°20' W 004°11'0 0.0
2017-Jul-20 08:30N 50°20' W 004°11'0 0.0
2017-Jul-20 08:00N 50°20' W 004°11'0 0.0
2017-Jul-20 07:30N 50°20' W 004°11'1 2.4
2017-Jul-20 07:00N 50°20' W 004°10'2 4.1
2017-Jul-20 06:30N 50°22' W 004°08'0 0.0
2017-Jul-20 05:59N 50°22' W 004°08'0 0.0
2017-Jul-20 05:29N 50°22' W 004°08'0 0.0
2017-Jul-20 04:59N 50°22' W 004°08'0 0.0
2017-Jul-20 04:29N 50°22' W 004°08'0 0.0
2017-Jul-20 03:59N 50°22' W 004°08'0 0.0
2017-Jul-20 03:29N 50°22' W 004°08'0 0.0
2017-Jul-20 02:59N 50°22' W 004°08'0 0.0
2017-Jul-20 02:29N 50°22' W 004°08'0 0.0
2017-Jul-20 01:59N 50°22' W 004°08'0 0.0
2017-Jul-20 01:29N 50°22' W 004°08'0 0.0
2017-Jul-20 00:59N 50°22' W 004°08'0 0.0
2017-Jul-20 00:29N 50°22' W 004°08'0 0.0
2017-Jul-19 23:59N 50°22' W 004°08'0 0.0
2017-Jul-19 23:29N 50°22' W 004°08'0 0.0
2017-Jul-19 22:59N 50°22' W 004°08'0 0.0
2017-Jul-19 22:29N 50°22' W 004°08'0 0.9
2017-Jul-19 22:01N 50°22' W 004°07'0 0.1
2017-Jul-19 21:29N 50°22' W 004°07'0 0.0
2017-Jul-19 20:59N 50°22' W 004°07'0 0.0
2017-Jul-19 20:29N 50°22' W 004°07'0 0.0
2017-Jul-19 19:59N 50°22' W 004°07'0 0.0
2017-Jul-19 19:29N 50°22' W 004°07'0 0.0
2017-Jul-19 18:59N 50°22' W 004°07'0 0.0
2017-Jul-19 18:29N 50°22' W 004°07'0 0.0
2017-Jul-19 17:58N 50°22' W 004°07'0 0.0
2017-Jul-19 17:28N 50°22' W 004°07'0 0.0
2017-Jul-19 16:58N 50°22' W 004°07'0 0.0
2017-Jul-19 16:28N 50°22' W 004°07'0 0.0
2017-Jul-19 15:58N 50°22' W 004°07'0 0.0
2017-Jul-19 15:28N 50°22' W 004°07'0 0.0
2017-Jul-19 14:58N 50°22' W 004°07'0 0.0
2017-Jul-19 14:28N 50°22' W 004°07'0 0.0
2017-Jul-19 13:58N 50°22' W 004°07'0 0.0
2017-Jul-19 13:28N 50°22' W 004°07'0 0.0
2017-Jul-19 12:58N 50°22' W 004°07'0 0.0
2017-Jul-19 12:28N 50°22' W 004°07'0 0.0
2017-Jul-19 11:58N 50°22' W 004°07'0 0.0
2017-Jul-19 11:28N 50°22' W 004°07'0 0.0
2017-Jul-19 10:58N 50°22' W 004°07'0 0.0
2017-Jul-19 10:28N 50°22' W 004°07'0 0.0
2017-Jul-19 09:58N 50°22' W 004°07'0 0.0
2017-Jul-19 09:28N 50°22' W 004°07'0 0.0
2017-Jul-19 08:58N 50°22' W 004°07'0 0.0
2017-Jul-19 08:28N 50°22' W 004°07'0 0.0
2017-Jul-19 07:58N 50°22' W 004°07'0 0.0
2017-Jul-19 07:28N 50°22' W 004°07'0 0.0
2017-Jul-19 06:58N 50°22' W 004°07'0 0.0
2017-Jul-19 06:28N 50°22' W 004°07'0 0.0
2017-Jul-19 05:58N 50°22' W 004°07'0 0.0
2017-Jul-19 05:28N 50°22' W 004°07'0 0.0
2017-Jul-19 05:01N 50°22' W 004°07'0 0.0
2017-Jul-19 04:31N 50°22' W 004°07'0 0.0
2017-Jul-19 04:00N 50°22' W 004°07'0 0.0
2017-Jul-19 03:30N 50°22' W 004°07'0 0.0
2017-Jul-19 03:00N 50°22' W 004°07'0 0.0
2017-Jul-19 02:30N 50°22' W 004°07'0 0.0
2017-Jul-19 02:00N 50°22' W 004°07'0 0.0
2017-Jul-19 01:30N 50°22' W 004°07'0 0.0
2017-Jul-19 01:00N 50°22' W 004°07'0 0.0
2017-Jul-19 00:30N 50°22' W 004°07'0 0.0
2017-Jul-19 00:00N 50°22' W 004°07'0 0.0
2017-Jul-18 23:30N 50°22' W 004°07'0 0.0
2017-Jul-18 23:00N 50°22' W 004°07'0 0.0
2017-Jul-18 22:30N 50°22' W 004°07'0 0.0
2017-Jul-18 22:00N 50°22' W 004°07'0 0.0
2017-Jul-18 21:30N 50°22' W 004°07'0 0.0
2017-Jul-18 21:00N 50°22' W 004°07'0 0.0
2017-Jul-18 20:30N 50°22' W 004°07'0 0.0
2017-Jul-18 20:00N 50°22' W 004°07'0 0.0
2017-Jul-18 19:30N 50°22' W 004°07'0 0.0
2017-Jul-18 19:00N 50°22' W 004°07'0 0.0
2017-Jul-18 18:30N 50°22' W 004°07'0 0.0
2017-Jul-18 18:00N 50°22' W 004°07'0 0.0
2017-Jul-18 17:30N 50°22' W 004°07'0 0.0
2017-Jul-18 17:00N 50°22' W 004°07'0 0.0
2017-Jul-18 16:30N 50°22' W 004°07'0 0.0
2017-Jul-18 16:00N 50°22' W 004°07'0 0.0
2017-Jul-18 15:30N 50°22' W 004°07'0 0.0
2017-Jul-18 15:00N 50°22' W 004°07'2 1.7
2017-Jul-18 14:01N 50°21' W 004°09'1 2.7
2017-Jul-18 13:29N 50°20' W 004°11'0 0.1
2017-Jul-18 12:59N 50°20' W 004°11'  
Track history (hours):
 
Tides and Currents Weather Stations Pressure Air Temp Water Temp Dewpoint Dewpoint Depression Visibility Wind Speed Wind Dir Waves Ship Positions

Burgtor

Last reported at 2017-Jul-28 12:30 UTC. Time now 2017-Jul-28 12:48 UTC.
Position N 53°58' E 008°35'.

Length 87 m; draft 5.2 m.

Type: Cargo ship. MMSI: 304665000.

Date/timePositionNaut miles runAvg speedWind from/ knotsBaromVisibWave heightAir tempDewpointWater temp
2017-Jul-28 12:30N 53°58' E 008°35'3 6.7
2017-Jul-28 12:00N 53°58' E 008°30'3 6.8
2017-Jul-28 11:30N 53°59' E 008°24'3 6.4
2017-Jul-28 11:00N 53°59' E 008°19'3 5.9
2017-Jul-28 10:30N 53°59' E 008°14'3 5.7
2017-Jul-28 10:00N 53°59' E 008°09'3 5.1
2017-Jul-28 09:30N 53°58' E 008°05'3 5.1
2017-Jul-28 08:56N 53°57' E 007°60'2 4.6
2017-Jul-28 08:28N 53°57' E 007°56'90 6.5
2017-Jul-27 18:42N 53°34' E 005°29'2 7.0
2017-Jul-27 18:27N 53°33' E 005°27'3 6.8
2017-Jul-27 18:00N 53°32' E 005°22'3 6.8
2017-Jul-27 17:30N 53°31' E 005°16'3 6.5
2017-Jul-27 17:00N 53°30' E 005°11'3 6.4
2017-Jul-27 16:30N 53°29' E 005°06'3 6.4
2017-Jul-27 16:00N 53°28' E 005°01'3 6.4
2017-Jul-27 15:31N 53°27' E 004°56'3 6.6
2017-Jul-27 15:00N 53°25' E 004°51'17 6.0
2017-Jul-27 12:12N 53°12' E 004°35'2 6.3
2017-Jul-27 11:56N 53°10' E 004°33'3 6.4
2017-Jul-27 11:29N 53°08' E 004°31'3 6.2
2017-Jul-27 11:00N 53°05' E 004°28'4 8.5
2017-Jul-27 10:30N 53°02' E 004°24'4 8.6
2017-Jul-27 10:00N 52°58' E 004°21'4 8.9
2017-Jul-27 09:30N 52°54' E 004°17'4 8.9
2017-Jul-27 09:00N 52°51' E 004°13'5 9.3
2017-Jul-27 08:31N 52°47' E 004°09'5 9.3
2017-Jul-27 08:00N 52°43' E 004°04'5 9.6
2017-Jul-27 07:30N 52°40' E 003°58'5 9.7
2017-Jul-27 07:00N 52°36' E 003°53'5 9.8
2017-Jul-27 06:28N 52°32' E 003°47'72 8.9
2017-Jul-26 22:21N 51°39' E 002°29'2 7.1
2017-Jul-26 22:00N 51°37' E 002°26'4 7.3
2017-Jul-26 21:30N 51°34' E 002°22'4 7.3
2017-Jul-26 21:00N 51°31' E 002°19'4 7.7
2017-Jul-26 20:31N 51°28' E 002°15'4 8.0
2017-Jul-26 20:00N 51°25' E 002°12'4 7.3
2017-Jul-26 19:30N 51°21' E 002°10'4 7.1
2017-Jul-26 19:00N 51°18' E 002°07'4 8.2
2017-Jul-26 18:31N 51°15' E 002°04'4 7.5
2017-Jul-26 18:01N 51°12' E 001°60'4 7.6
2017-Jul-26 17:31N 51°11' E 001°54'4 7.0
2017-Jul-26 17:00N 51°09' E 001°49'4 7.3
2017-Jul-26 16:30N 51°07' E 001°45'4 7.5
2017-Jul-26 16:00N 51°04' E 001°40'4 7.5
2017-Jul-26 15:30N 51°01' E 001°36'4 7.5
2017-Jul-26 15:00N 50°59' E 001°32'8 7.2
2017-Jul-26 13:56N 50°53' E 001°24'46 9.6
2017-Jul-26 09:05N 50°26' E 000°25'110.4
2017-Jul-26 08:59N 50°25' E 000°23'510.2
2017-Jul-26 08:30N 50°24' E 000°16'5 9.6
2017-Jul-26 08:00N 50°22' E 000°09'4 8.9
2017-Jul-26 07:30N 50°21' E 000°02'4 8.2
2017-Jul-26 06:59N 50°22' W 000°04'4 8.5
2017-Jul-26 06:30N 50°24' W 000°10'4 8.2
2017-Jul-26 06:01N 50°26' W 000°15'4 7.6
2017-Jul-26 05:30N 50°28' W 000°21'5 7.4
2017-Jul-26 04:52N 50°31' W 000°27'3 7.3
2017-Jul-26 04:30N 50°32' W 000°31'4 7.6
2017-Jul-26 04:01N 50°34' W 000°36'4 7.1
2017-Jul-26 03:30N 50°35' W 000°41'3 6.8
2017-Jul-26 03:00N 50°37' W 000°45'3 6.2
2017-Jul-26 02:30N 50°38' W 000°50'3 6.6
2017-Jul-26 02:00N 50°41' W 000°54'4 7.2
2017-Jul-26 01:31N 50°43' W 000°58'4 8.2
2017-Jul-26 01:00N 50°44' W 001°04'4 8.2
2017-Jul-26 00:30N 50°46' W 001°10'4 8.3
2017-Jul-26 00:01N 50°48' W 001°16'4 8.1
2017-Jul-25 23:30N 50°51' W 001°20'4 7.6
2017-Jul-25 23:00N 50°54' W 001°25'2 0.5
2017-Jul-25 19:52N 50°55' W 001°27'0 0.0
2017-Jul-25 18:01N 50°55' W 001°27'0 0.1
2017-Jul-25 17:58N 50°55' W 001°27'0 0.0
2017-Jul-24 01:03N 50°55' W 001°27'0 0.0
2017-Jul-24 01:00N 50°55' W 001°27'1 1.4
2017-Jul-24 00:30N 50°54' W 001°26'3 6.6
2017-Jul-24 00:00N 50°52' W 001°22'4 9.0
2017-Jul-23 23:30N 50°48' W 001°17'4 8.0
2017-Jul-23 23:00N 50°45' W 001°22'4 7.8
2017-Jul-23 22:30N 50°44' W 001°27'4 7.8
2017-Jul-23 22:00N 50°42' W 001°33'4 8.3
2017-Jul-23 21:30N 50°39' W 001°37'4 8.0
2017-Jul-23 21:00N 50°36' W 001°42'4 8.0
2017-Jul-23 20:30N 50°34' W 001°47'4 8.6
2017-Jul-23 20:00N 50°32' W 001°53'19 8.4
2017-Jul-23 17:43N 50°25' W 002°21'2 8.8
2017-Jul-23 17:30N 50°25' W 002°24'4 8.4
2017-Jul-23 17:00N 50°24' W 002°30'4 8.1
2017-Jul-23 16:30N 50°23' W 002°37'4 8.2
2017-Jul-23 16:00N 50°21' W 002°43'4 8.1
2017-Jul-23 15:30N 50°20' W 002°49'4 8.1
2017-Jul-23 15:00N 50°19' W 002°55'4 8.1
2017-Jul-23 14:30N 50°17' W 003°01'4 8.1
2017-Jul-23 14:00N 50°16' W 003°07'4 8.9
2017-Jul-23 13:30N 50°15' W 003°13'5 9.2
2017-Jul-23 13:00N 50°13' W 003°20'5 9.2
2017-Jul-23 12:30N 50°12' W 003°27'4 8.8
2017-Jul-23 12:00N 50°10' W 003°33'4 7.5
2017-Jul-23 11:30N 50°09' W 003°39'4 7.0
2017-Jul-23 11:00N 50°09' W 003°44'4 7.5
2017-Jul-23 10:30N 50°11' W 003°49'4 7.7
2017-Jul-23 10:00N 50°13' W 003°55'5 9.4
2017-Jul-23 09:30N 50°15' W 004°01'5 9.7
2017-Jul-23 09:00N 50°17' W 004°08'4 7.1
2017-Jul-23 08:30N 50°20' W 004°11'0 0.0
2017-Jul-23 07:58N 50°20' W 004°11'0 0.1
2017-Jul-23 07:28N 50°20' W 004°11'0 0.0
2017-Jul-23 06:58N 50°20' W 004°11'0 0.0
2017-Jul-23 06:28N 50°20' W 004°11'0 0.0
2017-Jul-23 05:58N 50°20' W 004°11'0 0.1
2017-Jul-23 05:28N 50°20' W 004°11'0 0.0
2017-Jul-23 04:58N 50°20' W 004°11'0 0.0
2017-Jul-23 04:28N 50°20' W 004°11'0 0.0
2017-Jul-23 03:58N 50°20' W 004°11'0 0.0
2017-Jul-23 03:28N 50°20' W 004°11'0 0.0
2017-Jul-23 02:58N 50°20' W 004°11'0 0.1
2017-Jul-23 02:28N 50°20' W 004°11'0 0.0
2017-Jul-23 01:58N 50°20' W 004°11'0 0.0
2017-Jul-23 01:28N 50°20' W 004°11'0 0.0
2017-Jul-23 00:58N 50°20' W 004°11'0 0.1
2017-Jul-23 00:28N 50°20' W 004°11'0 0.0
2017-Jul-22 23:58N 50°20' W 004°11'0 0.0
2017-Jul-22 23:28N 50°20' W 004°11'0 0.0
2017-Jul-22 22:58N 50°20' W 004°11'0 0.1
2017-Jul-22 22:28N 50°20' W 004°11'0 0.0
2017-Jul-22 21:58N 50°20' W 004°11'0 0.0
2017-Jul-22 21:28N 50°20' W 004°11'0 0.0
2017-Jul-22 20:58N 50°20' W 004°11'0 0.0
2017-Jul-22 20:28N 50°20' W 004°11'0 0.0
2017-Jul-22 19:58N 50°20' W 004°11'0 0.0
2017-Jul-22 19:28N 50°20' W 004°11'0 0.0
2017-Jul-22 19:01N 50°20' W 004°11'0 0.1
2017-Jul-22 18:31N 50°20' W 004°11'0 0.0
2017-Jul-22 18:01N 50°20' W 004°11'0 0.0
2017-Jul-22 17:30N 50°20' W 004°11'0 0.0
2017-Jul-22 17:00N 50°20' W 004°11'0 0.0
2017-Jul-22 16:30N 50°20' W 004°11'0 0.0
2017-Jul-22 16:00N 50°20' W 004°11'0 0.0
2017-Jul-22 15:30N 50°20' W 004°11'0 0.0
2017-Jul-22 15:00N 50°20' W 004°11'0 0.0
2017-Jul-22 14:00N 50°20' W 004°11'0 0.0
2017-Jul-22 13:30N 50°20' W 004°11'0 0.0
2017-Jul-22 13:00N 50°20' W 004°11'0 0.0
2017-Jul-22 12:30N 50°20' W 004°11'0 0.0
2017-Jul-22 12:00N 50°20' W 004°11'0 0.0
2017-Jul-22 11:30N 50°20' W 004°11'0 0.0
2017-Jul-22 11:00N 50°20' W 004°11'0 0.0
2017-Jul-22 10:30N 50°20' W 004°11'0 0.0
2017-Jul-22 10:00N 50°20' W 004°11'0 0.0
2017-Jul-22 09:30N 50°20' W 004°11'0 0.0
2017-Jul-22 09:00N 50°20' W 004°11'0 0.0
2017-Jul-22 08:30N 50°20' W 004°11'0 0.0
2017-Jul-22 07:57N 50°20' W 004°11'0 0.0
2017-Jul-22 07:30N 50°20' W 004°11'0 0.1
2017-Jul-22 07:00N 50°20' W 004°11'0 0.0
2017-Jul-22 06:30N 50°20' W 004°11'0 0.0
2017-Jul-22 06:00N 50°20' W 004°11'0 0.0
2017-Jul-22 05:30N 50°20' W 004°11'0 0.1
2017-Jul-22 05:00N 50°20' W 004°11'0 0.0
2017-Jul-22 04:30N 50°20' W 004°11'0 0.0
2017-Jul-22 04:00N 50°20' W 004°11'0 0.0
2017-Jul-22 03:30N 50°20' W 004°11'0 0.0
2017-Jul-22 03:00N 50°20' W 004°11'0 0.0
2017-Jul-22 02:30N 50°20' W 004°11'0 0.0
2017-Jul-22 02:00N 50°20' W 004°11'0 0.0
2017-Jul-22 01:30N 50°20' W 004°11'0 0.0
2017-Jul-22 01:00N 50°20' W 004°11'0 0.0
2017-Jul-22 00:30N 50°20' W 004°11'0 0.0
2017-Jul-22 00:00N 50°20' W 004°11'0 0.0
2017-Jul-21 23:30N 50°20' W 004°11'0 0.0
2017-Jul-21 23:00N 50°20' W 004°11'0 0.0
2017-Jul-21 22:30N 50°20' W 004°11'0 0.0
2017-Jul-21 22:00N 50°20' W 004°11'0 0.0
2017-Jul-21 21:30N 50°20' W 004°11'0 0.0
2017-Jul-21 21:00N 50°20' W 004°11'0 0.0
2017-Jul-21 20:30N 50°20' W 004°11'0 0.0
2017-Jul-21 20:00N 50°20' W 004°11'0 0.0
2017-Jul-21 19:27N 50°20' W 004°11'0 0.0
2017-Jul-21 19:00N 50°20' W 004°11'0 0.0
2017-Jul-21 18:30N 50°20' W 004°11'0 0.1
2017-Jul-21 18:00N 50°20' W 004°11'0 0.0
2017-Jul-21 17:30N 50°20' W 004°11'0 0.0
2017-Jul-21 17:00N 50°20' W 004°11'0 0.1
2017-Jul-21 16:30N 50°20' W 004°11'0 0.0
2017-Jul-21 16:00N 50°20' W 004°11'0 0.0
2017-Jul-21 15:30N 50°20' W 004°11'0 0.0
2017-Jul-21 15:00N 50°20' W 004°11'0 0.0
2017-Jul-21 14:30N 50°20' W 004°11'0 0.0
2017-Jul-21 14:00N 50°20' W 004°11'0 0.0
2017-Jul-21 13:30N 50°20' W 004°11'0 0.0
2017-Jul-21 13:00N 50°20' W 004°11'0 0.0
2017-Jul-21 12:30N 50°20' W 004°11'0 0.0
2017-Jul-21 12:00N 50°20' W 004°11'0 0.0
2017-Jul-21 11:30N 50°20' W 004°11'0 0.0
2017-Jul-21 11:00N 50°20' W 004°11'0 0.0
2017-Jul-21 10:30N 50°20' W 004°11'0 0.0
2017-Jul-21 10:00N 50°20' W 004°11'0 0.0
2017-Jul-21 09:30N 50°20' W 004°11'0 0.0
2017-Jul-21 09:00N 50°20' W 004°11'0 0.0
2017-Jul-21 08:30N 50°20' W 004°11'0 0.1
2017-Jul-21 08:00N 50°20' W 004°11'0 0.1
2017-Jul-21 07:29N 50°20' W 004°11'0 0.0
2017-Jul-21 06:59N 50°20' W 004°11'0 0.1
2017-Jul-21 06:29N 50°20' W 004°11'0 0.0
2017-Jul-21 05:59N 50°20' W 004°11'0 0.0
2017-Jul-21 05:29N 50°20' W 004°11'0 0.0
2017-Jul-21 04:59N 50°20' W 004°11'0 0.0
2017-Jul-21 04:29N 50°20' W 004°11'0 0.0
2017-Jul-21 03:59N 50°20' W 004°11'0 0.0
2017-Jul-21 03:29N 50°20' W 004°11'0 0.0
2017-Jul-21 02:59N 50°20' W 004°11'0 0.1
2017-Jul-21 02:29N 50°20' W 004°11'0 0.0
2017-Jul-21 01:59N 50°20' W 004°11'0 0.0
2017-Jul-21 01:29N 50°20' W 004°11'0 0.0
2017-Jul-21 00:59N 50°20' W 004°11'0 0.0
2017-Jul-21 00:29N 50°20' W 004°11'0 0.1
2017-Jul-20 23:59N 50°20' W 004°11'0 0.1
2017-Jul-20 23:29N 50°20' W 004°11'0 0.0
2017-Jul-20 22:59N 50°20' W 004°11'0 0.0
2017-Jul-20 22:29N 50°20' W 004°11'0 0.0
2017-Jul-20 21:59N 50°20' W 004°11'0 0.1
2017-Jul-20 21:29N 50°20' W 004°11'0 0.0
2017-Jul-20 20:59N 50°20' W 004°11'0 0.0
2017-Jul-20 20:29N 50°20' W 004°11'0 0.0
2017-Jul-20 19:59N 50°20' W 004°11'0 0.0
2017-Jul-20 19:29N 50°20' W 004°11'0 0.0
2017-Jul-20 18:59N 50°20' W 004°11'0 0.1
2017-Jul-20 18:29N 50°20' W 004°11'0 0.0
2017-Jul-20 17:56N 50°20' W 004°11'0 0.0
2017-Jul-20 17:29N 50°20' W 004°11'0 0.0
2017-Jul-20 16:59N 50°20' W 004°11'0 0.0
2017-Jul-20 16:29N 50°20' W 004°11'0 0.0
2017-Jul-20 15:59N 50°20' W 004°11'0 0.1
2017-Jul-20 15:29N 50°20' W 004°11'0 0.0
2017-Jul-20 14:59N 50°20' W 004°11'0 0.1
2017-Jul-20 13:59N 50°20' W 004°11'0 0.0
2017-Jul-20 13:29N 50°20' W 004°11'0 0.1
2017-Jul-20 12:59N 50°20' W 004°11'0 0.0
2017-Jul-20 12:29N 50°20' W 004°11'0 0.0
2017-Jul-20 11:59N 50°20' W 004°11'0 0.0
2017-Jul-20 11:30N 50°20' W 004°11'0 0.0
2017-Jul-20 11:00N 50°20' W 004°11'0 0.0
2017-Jul-20 10:30N 50°20' W 004°11'0 0.0
2017-Jul-20 10:00N 50°20' W 004°11'0 0.1
2017-Jul-20 09:30N 50°20' W 004°11'0 0.1
2017-Jul-20 09:00N 50°20' W 004°11'0 0.0
2017-Jul-20 08:30N 50°20' W 004°11'0 0.0
2017-Jul-20 08:00N 50°20' W 004°11'0 0.0
2017-Jul-20 07:30N 50°20' W 004°11'1 2.4
2017-Jul-20 07:00N 50°20' W 004°10'2 4.1
2017-Jul-20 06:30N 50°22' W 004°08'0 0.0
2017-Jul-20 05:59N 50°22' W 004°08'0 0.0
2017-Jul-20 05:29N 50°22' W 004°08'0 0.0
2017-Jul-20 04:59N 50°22' W 004°08'0 0.0
2017-Jul-20 04:29N 50°22' W 004°08'0 0.0
2017-Jul-20 03:59N 50°22' W 004°08'0 0.0
2017-Jul-20 03:29N 50°22' W 004°08'0 0.0
2017-Jul-20 02:59N 50°22' W 004°08'0 0.0
2017-Jul-20 02:29N 50°22' W 004°08'0 0.0
2017-Jul-20 01:59N 50°22' W 004°08'0 0.0
2017-Jul-20 01:29N 50°22' W 004°08'0 0.0
2017-Jul-20 00:59N 50°22' W 004°08'0 0.0
2017-Jul-20 00:29N 50°22' W 004°08'0 0.0
2017-Jul-19 23:59N 50°22' W 004°08'0 0.0
2017-Jul-19 23:29N 50°22' W 004°08'0 0.0
2017-Jul-19 22:59N 50°22' W 004°08'0 0.0
2017-Jul-19 22:29N 50°22' W 004°08'0 0.9
2017-Jul-19 22:01N 50°22' W 004°07'0 0.1
2017-Jul-19 21:29N 50°22' W 004°07'0 0.0
2017-Jul-19 20:59N 50°22' W 004°07'0 0.0
2017-Jul-19 20:29N 50°22' W 004°07'0 0.0
2017-Jul-19 19:59N 50°22' W 004°07'0 0.0
2017-Jul-19 19:29N 50°22' W 004°07'0 0.0
2017-Jul-19 18:59N 50°22' W 004°07'0 0.0
2017-Jul-19 18:29N 50°22' W 004°07'0 0.0
2017-Jul-19 17:58N 50°22' W 004°07'0 0.0
2017-Jul-19 17:28N 50°22' W 004°07'0 0.0
2017-Jul-19 16:58N 50°22' W 004°07'0 0.0
2017-Jul-19 16:28N 50°22' W 004°07'0 0.0
2017-Jul-19 15:58N 50°22' W 004°07'0 0.0
2017-Jul-19 15:28N 50°22' W 004°07'0 0.0
2017-Jul-19 14:58N 50°22' W 004°07'0 0.0
2017-Jul-19 14:28N 50°22' W 004°07'0 0.0
2017-Jul-19 13:58N 50°22' W 004°07'0 0.0
2017-Jul-19 13:28N 50°22' W 004°07'0 0.0
2017-Jul-19 12:58N 50°22' W 004°07'0 0.0
2017-Jul-19 12:28N 50°22' W 004°07'0 0.0
2017-Jul-19 11:58N 50°22' W 004°07'0 0.0
2017-Jul-19 11:28N 50°22' W 004°07'0 0.0
2017-Jul-19 10:58N 50°22' W 004°07'0 0.0
2017-Jul-19 10:28N 50°22' W 004°07'0 0.0
2017-Jul-19 09:58N 50°22' W 004°07'0 0.0
2017-Jul-19 09:28N 50°22' W 004°07'0 0.0
2017-Jul-19 08:58N 50°22' W 004°07'0 0.0
2017-Jul-19 08:28N 50°22' W 004°07'0 0.0
2017-Jul-19 07:58N 50°22' W 004°07'0 0.0
2017-Jul-19 07:28N 50°22' W 004°07'0 0.0
2017-Jul-19 06:58N 50°22' W 004°07'0 0.0
2017-Jul-19 06:28N 50°22' W 004°07'0 0.0
2017-Jul-19 05:58N 50°22' W 004°07'0 0.0
2017-Jul-19 05:28N 50°22' W 004°07'0 0.0
2017-Jul-19 05:01N 50°22' W 004°07'0 0.0
2017-Jul-19 04:31N 50°22' W 004°07'0 0.0
2017-Jul-19 04:00N 50°22' W 004°07'0 0.0
2017-Jul-19 03:30N 50°22' W 004°07'0 0.0
2017-Jul-19 03:00N 50°22' W 004°07'0 0.0
2017-Jul-19 02:30N 50°22' W 004°07'0 0.0
2017-Jul-19 02:00N 50°22' W 004°07'0 0.0
2017-Jul-19 01:30N 50°22' W 004°07'0 0.0
2017-Jul-19 01:00N 50°22' W 004°07'0 0.0
2017-Jul-19 00:30N 50°22' W 004°07'0 0.0
2017-Jul-19 00:00N 50°22' W 004°07'0 0.0
2017-Jul-18 23:30N 50°22' W 004°07'0 0.0
2017-Jul-18 23:00N 50°22' W 004°07'0 0.0
2017-Jul-18 22:30N 50°22' W 004°07'0 0.0
2017-Jul-18 22:00N 50°22' W 004°07'0 0.0
2017-Jul-18 21:30N 50°22' W 004°07'0 0.0
2017-Jul-18 21:00N 50°22' W 004°07'0 0.0
2017-Jul-18 20:30N 50°22' W 004°07'0 0.0
2017-Jul-18 20:00N 50°22' W 004°07'0 0.0
2017-Jul-18 19:30N 50°22' W 004°07'0 0.0
2017-Jul-18 19:00N 50°22' W 004°07'0 0.0
2017-Jul-18 18:30N 50°22' W 004°07'0 0.0
2017-Jul-18 18:00N 50°22' W 004°07'0 0.0
2017-Jul-18 17:30N 50°22' W 004°07'0 0.0
2017-Jul-18 17:00N 50°22' W 004°07'0 0.0
2017-Jul-18 16:30N 50°22' W 004°07'0 0.0
2017-Jul-18 16:00N 50°22' W 004°07'0 0.0
2017-Jul-18 15:30N 50°22' W 004°07'0 0.0
2017-Jul-18 15:00N 50°22' W 004°07'2 1.7
2017-Jul-18 14:01N 50°21' W 004°09'1 2.7
2017-Jul-18 13:29N 50°20' W 004°11'0 0.1
2017-Jul-18 12:59N 50°20' W 004°11'  

Dump ship's entire track history